Kliftrans — PCDB — position and weather

sailwx.info

Track history (hours):
 
Tides and Currents Weather Stations Pressure Air Temp Water Temp Dewpoint Dewpoint Depression Visibility Wind Speed Wind Dir Waves Ship Positions

Kliftrans

Last reported at 2017-Aug-23 12:00 UTC. Time now 2017-Aug-23 11:58 UTC.
Position N 51°09' E 003°47'.

Length 32 m; draft 6.2 m.

Type: Tug. MMSI: 244890607.

Date/timePositionNaut miles runAvg speedWind from/ knotsBaromVisibWave heightAir tempDewpointWater temp
2017-Aug-23 12:00N 51°09' E 003°47'0 0.0
2017-Aug-23 11:30N 51°09' E 003°47'0 0.0
2017-Aug-23 11:00N 51°09' E 003°47'0 0.0
2017-Aug-23 10:30N 51°09' E 003°47'0 0.0
2017-Aug-23 10:00N 51°09' E 003°47'0 0.0
2017-Aug-23 09:30N 51°09' E 003°47'0 0.0
2017-Aug-23 09:00N 51°09' E 003°47'0 0.0
2017-Aug-23 08:27N 51°09' E 003°47'0 0.0
2017-Aug-23 08:00N 51°09' E 003°47'0 0.0
2017-Aug-23 07:30N 51°09' E 003°47'0 0.0
2017-Aug-23 07:00N 51°09' E 003°47'0 0.0
2017-Aug-23 06:30N 51°09' E 003°47'0 0.9
2017-Aug-23 06:01N 51°09' E 003°47'1 2.2
2017-Aug-23 05:31N 51°10' E 003°47'2 4.9
2017-Aug-23 05:01N 51°12' E 003°48'2 4.6
2017-Aug-23 04:31N 51°15' E 003°49'2 4.8
2017-Aug-23 04:01N 51°17' E 003°50'3 5.0
2017-Aug-23 03:31N 51°19' E 003°49'1 1.4
2017-Aug-23 03:01N 51°20' E 003°49'0 0.3
2017-Aug-23 02:31N 51°20' E 003°49'0 1.0
2017-Aug-23 02:00N 51°20' E 003°49'2 4.5
2017-Aug-23 01:31N 51°22' E 003°46'5 9.2
2017-Aug-23 01:00N 51°25' E 003°42'2 4.2
2017-Aug-23 00:28N 51°28' E 003°40'0 0.0
2017-Aug-22 23:58N 51°28' E 003°40'0 0.0
2017-Aug-22 23:28N 51°28' E 003°40'0 0.0
2017-Aug-22 22:55N 51°28' E 003°40'0 0.0
2017-Aug-22 22:25N 51°28' E 003°40'0 0.0
2017-Aug-22 21:58N 51°28' E 003°40'0 0.0
2017-Aug-22 21:25N 51°28' E 003°40'0 0.0
2017-Aug-22 20:58N 51°28' E 003°40'0 0.0
2017-Aug-22 20:13N 51°28' E 003°40'0 0.0
2017-Aug-22 19:58N 51°28' E 003°40'0 0.1
2017-Aug-22 19:22N 51°28' E 003°40'0 0.1
2017-Aug-22 18:58N 51°28' E 003°40'0 0.0
2017-Aug-22 18:28N 51°28' E 003°40'0 0.0
2017-Aug-22 17:07N 51°28' E 003°40'0 0.0
2017-Aug-22 16:55N 51°28' E 003°40'0 0.0
2017-Aug-22 16:07N 51°28' E 003°40'0 0.0
2017-Aug-22 15:37N 51°28' E 003°40'0 0.1
2017-Aug-22 15:19N 51°28' E 003°40'0 0.0
2017-Aug-22 14:22N 51°28' E 003°40'0 0.0
2017-Aug-22 13:55N 51°28' E 003°40'0 0.0
2017-Aug-22 13:22N 51°28' E 003°40'0 0.0
2017-Aug-22 12:49N 51°28' E 003°40'0 0.0
2017-Aug-22 12:25N 51°28' E 003°40'0 0.0
2017-Aug-22 12:00N 51°28' E 003°40'4 8.1
2017-Aug-22 11:30N 51°26' E 003°34'611.3
2017-Aug-22 11:00N 51°30' E 003°28'611.3
2017-Aug-22 10:27N 51°36' E 003°23'811.1
2017-Aug-22 09:42N 51°43' E 003°15'210.9
2017-Aug-22 09:28N 51°45' E 003°13'85 8.6
2017-Aug-21 23:33N 52°50' E 001°43'0 8.5
2017-Aug-21 23:30N 52°50' E 001°43'4 8.6
2017-Aug-21 23:00N 52°52' E 001°37'4 8.9
2017-Aug-21 22:30N 52°55' E 001°31'5 9.7
2017-Aug-21 22:00N 52°57' E 001°24'510.7
2017-Aug-21 21:30N 52°59' E 001°16'3 0.3
2017-Aug-21 09:22N 53°01' E 001°11'3 8.4
2017-Aug-21 09:00N 52°60' E 001°16'4 7.8
2017-Aug-21 08:30N 52°58' E 001°21'4 7.1
2017-Aug-21 08:00N 52°56' E 001°27'3 6.6
2017-Aug-21 07:29N 52°55' E 001°32'3 6.4
2017-Aug-21 07:00N 52°53' E 001°36'3 6.2
2017-Aug-21 06:30N 52°52' E 001°41'3 6.4
2017-Aug-21 06:00N 52°51' E 001°46'3 6.8
2017-Aug-21 05:30N 52°49' E 001°51'6 7.5
2017-Aug-21 04:42N 52°46' E 001°59'2 8.3
2017-Aug-21 04:30N 52°45' E 002°01'5 8.8
2017-Aug-21 03:58N 52°42' E 002°08'4 9.1
2017-Aug-21 03:30N 52°41' E 002°14'7412.7
2017-Aug-20 21:43N 52°02' E 003°57'0 0.0
2017-Aug-20 21:30N 52°02' E 003°57'0 0.0
2017-Aug-20 21:00N 52°02' E 003°57'0 0.0
2017-Aug-20 20:30N 52°02' E 003°57'0 0.0
2017-Aug-20 20:00N 52°02' E 003°57'0 0.0
2017-Aug-20 19:30N 52°02' E 003°57'4 7.9
2017-Aug-20 19:00N 51°60' E 004°02'2 4.3
2017-Aug-20 18:30N 51°58' E 004°03'0 0.1
2017-Aug-20 18:00N 51°58' E 004°03'1 2.4
2017-Aug-20 17:30N 51°58' E 004°05'1 2.4
2017-Aug-20 17:00N 51°59' E 004°05'3 6.1
2017-Aug-20 16:30N 51°58' E 004°09'3 5.8
2017-Aug-20 16:00N 51°56' E 004°13'3 5.3
2017-Aug-20 15:30N 51°54' E 004°17'3 5.1
2017-Aug-20 15:00N 51°54' E 004°21'1 2.9
2017-Aug-20 14:31N 51°54' E 004°23'0 0.9
2017-Aug-20 14:01N 51°54' E 004°23'0 0.1
2017-Aug-20 13:30N 51°54' E 004°23'0 0.1
2017-Aug-20 13:00N 51°54' E 004°23'0 0.0
2017-Aug-20 12:30N 51°54' E 004°23'0 0.0
2017-Aug-20 12:00N 51°54' E 004°23'0 0.0
2017-Aug-20 11:30N 51°54' E 004°23'1 3.0
2017-Aug-20 11:00N 51°55' E 004°25'0 0.4
2017-Aug-20 10:30N 51°55' E 004°25'0 0.0
2017-Aug-20 10:00N 51°55' E 004°25'0 0.0
2017-Aug-20 09:30N 51°55' E 004°25'0 0.0
2017-Aug-20 09:00N 51°55' E 004°25'0 0.0
2017-Aug-20 08:30N 51°55' E 004°25'0 0.0
2017-Aug-20 08:00N 51°55' E 004°25'0 0.0
2017-Aug-20 07:30N 51°55' E 004°25'0 0.0
2017-Aug-20 07:00N 51°55' E 004°25'0 0.0
2017-Aug-20 06:30N 51°55' E 004°25'0 0.0
2017-Aug-20 06:00N 51°55' E 004°25'0 0.0
2017-Aug-20 05:30N 51°55' E 004°25'0 0.0
2017-Aug-20 05:00N 51°55' E 004°25'0 0.0
2017-Aug-20 04:30N 51°55' E 004°25'0 0.0
2017-Aug-20 04:00N 51°55' E 004°25'0 0.0
2017-Aug-20 03:30N 51°55' E 004°25'0 0.0
2017-Aug-20 03:00N 51°55' E 004°25'0 0.0
2017-Aug-20 02:30N 51°55' E 004°25'0 0.0
2017-Aug-20 02:00N 51°55' E 004°25'0 0.0
2017-Aug-20 01:30N 51°55' E 004°25'0 0.0
2017-Aug-20 01:00N 51°55' E 004°25'2 4.4
2017-Aug-20 00:30N 51°54' E 004°22'611.8
2017-Aug-20 00:00N 51°56' E 004°13'510.4
2017-Aug-19 23:30N 51°58' E 004°05'2 3.6
2017-Aug-19 23:00N 51°58' E 004°03'1 1.8
2017-Aug-19 22:30N 51°58' E 004°04'1 2.5
2017-Aug-19 22:01N 51°59' E 004°04'2 3.1
2017-Aug-19 21:30N 51°58' E 004°06'0 0.1
2017-Aug-19 21:00N 51°58' E 004°06'0 0.9
2017-Aug-19 20:30N 51°58' E 004°05'1 2.9
2017-Aug-19 20:00N 51°56' E 004°04'2 3.9
2017-Aug-19 19:31N 51°58' E 004°05'2 4.2
2017-Aug-19 19:00N 51°57' E 004°09'0 0.5
2017-Aug-19 18:30N 51°57' E 004°08'1 2.3
2017-Aug-19 18:00N 51°58' E 004°07'1 1.4
2017-Aug-19 17:30N 51°58' E 004°06'0 0.1
2017-Aug-19 17:00N 51°58' E 004°06'0 0.0
2017-Aug-19 16:30N 51°58' E 004°06'0 0.0
2017-Aug-19 16:00N 51°58' E 004°06'0 0.0
2017-Aug-19 15:30N 51°58' E 004°06'1 1.9
2017-Aug-19 15:00N 51°58' E 004°04'1 0.6
2017-Aug-19 14:00N 51°58' E 004°05'1 2.8
2017-Aug-19 13:30N 51°59' E 004°04'2 4.4
2017-Aug-19 13:00N 51°57' E 004°04'0 0.2
2017-Aug-19 12:30N 51°57' E 004°04'2 3.6
2017-Aug-19 12:00N 51°58' E 004°05'0 1.0
2017-Aug-19 11:30N 51°59' E 004°04'1 2.4
2017-Aug-19 11:01N 51°58' E 004°06'3 6.5
2017-Aug-19 10:30N 51°57' E 004°11'5 9.7
2017-Aug-19 10:00N 51°54' E 004°17'4 8.7
2017-Aug-19 09:30N 51°54' E 004°24'1 2.0
2017-Aug-19 09:00N 51°55' E 004°25'0 0.0
2017-Aug-19 08:30N 51°55' E 004°25'0 0.0
2017-Aug-19 08:00N 51°55' E 004°25'0 0.0
2017-Aug-19 07:30N 51°55' E 004°25'0 0.0
2017-Aug-19 07:00N 51°55' E 004°25'0 0.0
2017-Aug-19 06:30N 51°55' E 004°25'0 0.0
2017-Aug-19 06:00N 51°55' E 004°25'0 0.0
2017-Aug-19 05:30N 51°55' E 004°25'0 0.0
2017-Aug-19 05:00N 51°55' E 004°25'0 0.0
2017-Aug-19 04:30N 51°55' E 004°25'0 0.0
2017-Aug-19 04:00N 51°55' E 004°25'0 0.0
2017-Aug-19 03:30N 51°55' E 004°25'0 0.0
2017-Aug-19 03:00N 51°55' E 004°25'0 0.0
2017-Aug-19 02:30N 51°55' E 004°25'0 0.0
2017-Aug-19 02:00N 51°55' E 004°25'0 0.0
2017-Aug-19 01:30N 51°55' E 004°25'0 0.0
2017-Aug-19 01:00N 51°55' E 004°25'0 0.1
2017-Aug-19 00:30N 51°55' E 004°25'3 6.5
2017-Aug-19 00:01N 51°54' E 004°20'0 0.8
2017-Aug-18 23:30N 51°53' E 004°21'3 5.3
2017-Aug-18 23:01N 51°54' E 004°25'1 1.3
2017-Aug-18 22:30N 51°55' E 004°25'0 0.0
2017-Aug-18 22:00N 51°55' E 004°25'0 0.0
2017-Aug-18 21:30N 51°55' E 004°25'0 0.0
2017-Aug-18 21:00N 51°55' E 004°25'0 0.0
2017-Aug-18 20:30N 51°55' E 004°25'0 0.0
2017-Aug-18 20:00N 51°55' E 004°25'0 0.0
2017-Aug-18 19:30N 51°55' E 004°25'0 0.0
2017-Aug-18 19:00N 51°55' E 004°25'0 0.0
2017-Aug-18 18:30N 51°55' E 004°25'0 0.0
2017-Aug-18 18:00N 51°55' E 004°25'0 0.0
2017-Aug-18 17:30N 51°55' E 004°25'0 0.0
2017-Aug-18 17:00N 51°55' E 004°25'0 0.0
2017-Aug-18 16:30N 51°55' E 004°25'0 0.0
2017-Aug-18 16:00N 51°55' E 004°25'0 0.0
2017-Aug-18 15:30N 51°55' E 004°25'0 0.0
2017-Aug-18 15:00N 51°55' E 004°25'0 0.0
2017-Aug-18 14:30N 51°55' E 004°25'0 0.0
2017-Aug-18 13:30N 51°55' E 004°25'0 0.0
2017-Aug-18 13:00N 51°55' E 004°25'0 0.0
2017-Aug-18 12:30N 51°55' E 004°25'0 0.0
2017-Aug-18 12:00N 51°55' E 004°25'0 0.0
2017-Aug-18 11:30N 51°55' E 004°25'0 0.0
2017-Aug-18 11:00N 51°55' E 004°25'0 0.0
2017-Aug-18 10:30N 51°55' E 004°25'0 0.0
2017-Aug-18 10:00N 51°55' E 004°25'0 0.0
2017-Aug-18 09:30N 51°55' E 004°25'0 0.0
2017-Aug-18 09:00N 51°55' E 004°25'0 0.0
2017-Aug-18 08:30N 51°55' E 004°25'0 0.0
2017-Aug-18 08:00N 51°55' E 004°25'0 0.0
2017-Aug-18 07:30N 51°55' E 004°25'0 0.0
2017-Aug-18 07:00N 51°55' E 004°25'0 0.0
2017-Aug-18 06:30N 51°55' E 004°25'0 0.0
2017-Aug-18 06:00N 51°55' E 004°25'0 0.0
2017-Aug-18 05:30N 51°55' E 004°25'0 0.0
2017-Aug-18 05:00N 51°55' E 004°25'0 0.0
2017-Aug-18 04:30N 51°55' E 004°25'0 0.0
2017-Aug-18 04:00N 51°55' E 004°25'0 0.0
2017-Aug-18 03:30N 51°55' E 004°25'0 0.0
2017-Aug-18 03:00N 51°55' E 004°25'0 0.0
2017-Aug-18 02:30N 51°55' E 004°25'0 0.0
2017-Aug-18 02:00N 51°55' E 004°25'0 0.0
2017-Aug-18 01:30N 51°55' E 004°25'0 0.0
2017-Aug-18 01:00N 51°55' E 004°25'0 0.0
2017-Aug-18 00:30N 51°55' E 004°25'0 0.0
2017-Aug-18 00:00N 51°55' E 004°25'0 0.0
2017-Aug-17 23:30N 51°55' E 004°25'0 0.0
2017-Aug-17 23:00N 51°55' E 004°25'0 0.0
2017-Aug-17 22:30N 51°55' E 004°25'0 0.0
2017-Aug-17 22:00N 51°55' E 004°25'0 0.0
2017-Aug-17 21:30N 51°55' E 004°25'0 0.0
2017-Aug-17 21:00N 51°55' E 004°25'0 0.0
2017-Aug-17 20:30N 51°55' E 004°25'0 0.0
2017-Aug-17 20:00N 51°55' E 004°25'0 0.0
2017-Aug-17 19:30N 51°55' E 004°25'0 0.0
2017-Aug-17 19:00N 51°55' E 004°25'0 0.0
2017-Aug-17 18:30N 51°55' E 004°25'0 0.0
2017-Aug-17 18:00N 51°55' E 004°25'0 0.0
2017-Aug-17 17:30N 51°55' E 004°25'0 0.0
2017-Aug-17 17:00N 51°55' E 004°25'0 0.0
2017-Aug-17 16:30N 51°55' E 004°25'0 0.0
2017-Aug-17 16:00N 51°55' E 004°25'0 0.0
2017-Aug-17 15:30N 51°55' E 004°25'0 0.0
2017-Aug-17 15:00N 51°55' E 004°25'0 0.0
2017-Aug-17 14:30N 51°55' E 004°25'0 0.0
2017-Aug-17 14:00N 51°55' E 004°25'0 0.0
2017-Aug-17 13:30N 51°55' E 004°25'0 0.0
2017-Aug-17 13:00N 51°55' E 004°25'0 0.0
2017-Aug-17 12:30N 51°55' E 004°25'0 0.0
2017-Aug-17 12:00N 51°55' E 004°25'0 0.0
2017-Aug-17 11:30N 51°55' E 004°25'0 0.0
2017-Aug-17 11:00N 51°55' E 004°25'0 0.0
2017-Aug-17 10:30N 51°55' E 004°25'2 3.6
2017-Aug-17 10:00N 51°54' E 004°23'5 9.6
2017-Aug-17 09:30N 51°55' E 004°15'611.1
2017-Aug-17 09:00N 51°58' E 004°08'510.7
2017-Aug-17 08:30N 51°60' E 003°60'611.2
2017-Aug-17 08:00N 52°01' E 003°51'1018.9
2017-Aug-17 07:29N 52°11' E 003°47'0 0.1
2017-Aug-17 07:00N 52°11' E 003°47'2210.3
2017-Aug-17 04:55N 52°33' E 003°52'410.6
2017-Aug-17 04:30N 52°37' E 003°53'510.7
2017-Aug-17 04:00N 52°42' E 003°56'510.8
2017-Aug-17 03:30N 52°47' E 003°57'510.6
2017-Aug-17 03:00N 52°53' E 003°59'6 9.9
2017-Aug-17 02:21N 52°58' E 004°04'4 9.9
2017-Aug-17 01:58N 53°01' E 004°09'5 9.7
2017-Aug-17 01:30N 53°04' E 004°14'5 9.4
2017-Aug-17 01:00N 53°07' E 004°20'5 9.1
2017-Aug-17 00:28N 53°10' E 004°26'12 8.4
2017-Aug-16 23:01N 53°22' E 004°32'0 8.8
2017-Aug-16 23:00N 53°22' E 004°32'5 8.6
2017-Aug-16 22:26N 53°27' E 004°34'4 8.9
2017-Aug-16 22:00N 53°30' E 004°36'5 9.4
2017-Aug-16 21:28N 53°35' E 004°39'  
Track history (hours):
 
Tides and Currents Weather Stations Pressure Air Temp Water Temp Dewpoint Dewpoint Depression Visibility Wind Speed Wind Dir Waves Ship Positions

Kliftrans

Last reported at 2017-Aug-23 12:00 UTC. Time now 2017-Aug-23 11:58 UTC.
Position N 51°09' E 003°47'.

Length 32 m; draft 6.2 m.

Type: Tug. MMSI: 244890607.

Date/timePositionNaut miles runAvg speedWind from/ knotsBaromVisibWave heightAir tempDewpointWater temp
2017-Aug-23 12:00N 51°09' E 003°47'0 0.0
2017-Aug-23 11:30N 51°09' E 003°47'0 0.0
2017-Aug-23 11:00N 51°09' E 003°47'0 0.0
2017-Aug-23 10:30N 51°09' E 003°47'0 0.0
2017-Aug-23 10:00N 51°09' E 003°47'0 0.0
2017-Aug-23 09:30N 51°09' E 003°47'0 0.0
2017-Aug-23 09:00N 51°09' E 003°47'0 0.0
2017-Aug-23 08:27N 51°09' E 003°47'0 0.0
2017-Aug-23 08:00N 51°09' E 003°47'0 0.0
2017-Aug-23 07:30N 51°09' E 003°47'0 0.0
2017-Aug-23 07:00N 51°09' E 003°47'0 0.0
2017-Aug-23 06:30N 51°09' E 003°47'0 0.9
2017-Aug-23 06:01N 51°09' E 003°47'1 2.2
2017-Aug-23 05:31N 51°10' E 003°47'2 4.9
2017-Aug-23 05:01N 51°12' E 003°48'2 4.6
2017-Aug-23 04:31N 51°15' E 003°49'2 4.8
2017-Aug-23 04:01N 51°17' E 003°50'3 5.0
2017-Aug-23 03:31N 51°19' E 003°49'1 1.4
2017-Aug-23 03:01N 51°20' E 003°49'0 0.3
2017-Aug-23 02:31N 51°20' E 003°49'0 1.0
2017-Aug-23 02:00N 51°20' E 003°49'2 4.5
2017-Aug-23 01:31N 51°22' E 003°46'5 9.2
2017-Aug-23 01:00N 51°25' E 003°42'2 4.2
2017-Aug-23 00:28N 51°28' E 003°40'0 0.0
2017-Aug-22 23:58N 51°28' E 003°40'0 0.0
2017-Aug-22 23:28N 51°28' E 003°40'0 0.0
2017-Aug-22 22:55N 51°28' E 003°40'0 0.0
2017-Aug-22 22:25N 51°28' E 003°40'0 0.0
2017-Aug-22 21:58N 51°28' E 003°40'0 0.0
2017-Aug-22 21:25N 51°28' E 003°40'0 0.0
2017-Aug-22 20:58N 51°28' E 003°40'0 0.0
2017-Aug-22 20:13N 51°28' E 003°40'0 0.0
2017-Aug-22 19:58N 51°28' E 003°40'0 0.1
2017-Aug-22 19:22N 51°28' E 003°40'0 0.1
2017-Aug-22 18:58N 51°28' E 003°40'0 0.0
2017-Aug-22 18:28N 51°28' E 003°40'0 0.0
2017-Aug-22 17:07N 51°28' E 003°40'0 0.0
2017-Aug-22 16:55N 51°28' E 003°40'0 0.0
2017-Aug-22 16:07N 51°28' E 003°40'0 0.0
2017-Aug-22 15:37N 51°28' E 003°40'0 0.1
2017-Aug-22 15:19N 51°28' E 003°40'0 0.0
2017-Aug-22 14:22N 51°28' E 003°40'0 0.0
2017-Aug-22 13:55N 51°28' E 003°40'0 0.0
2017-Aug-22 13:22N 51°28' E 003°40'0 0.0
2017-Aug-22 12:49N 51°28' E 003°40'0 0.0
2017-Aug-22 12:25N 51°28' E 003°40'0 0.0
2017-Aug-22 12:00N 51°28' E 003°40'4 8.1
2017-Aug-22 11:30N 51°26' E 003°34'611.3
2017-Aug-22 11:00N 51°30' E 003°28'611.3
2017-Aug-22 10:27N 51°36' E 003°23'811.1
2017-Aug-22 09:42N 51°43' E 003°15'210.9
2017-Aug-22 09:28N 51°45' E 003°13'85 8.6
2017-Aug-21 23:33N 52°50' E 001°43'0 8.5
2017-Aug-21 23:30N 52°50' E 001°43'4 8.6
2017-Aug-21 23:00N 52°52' E 001°37'4 8.9
2017-Aug-21 22:30N 52°55' E 001°31'5 9.7
2017-Aug-21 22:00N 52°57' E 001°24'510.7
2017-Aug-21 21:30N 52°59' E 001°16'3 0.3
2017-Aug-21 09:22N 53°01' E 001°11'3 8.4
2017-Aug-21 09:00N 52°60' E 001°16'4 7.8
2017-Aug-21 08:30N 52°58' E 001°21'4 7.1
2017-Aug-21 08:00N 52°56' E 001°27'3 6.6
2017-Aug-21 07:29N 52°55' E 001°32'3 6.4
2017-Aug-21 07:00N 52°53' E 001°36'3 6.2
2017-Aug-21 06:30N 52°52' E 001°41'3 6.4
2017-Aug-21 06:00N 52°51' E 001°46'3 6.8
2017-Aug-21 05:30N 52°49' E 001°51'6 7.5
2017-Aug-21 04:42N 52°46' E 001°59'2 8.3
2017-Aug-21 04:30N 52°45' E 002°01'5 8.8
2017-Aug-21 03:58N 52°42' E 002°08'4 9.1
2017-Aug-21 03:30N 52°41' E 002°14'7412.7
2017-Aug-20 21:43N 52°02' E 003°57'0 0.0
2017-Aug-20 21:30N 52°02' E 003°57'0 0.0
2017-Aug-20 21:00N 52°02' E 003°57'0 0.0
2017-Aug-20 20:30N 52°02' E 003°57'0 0.0
2017-Aug-20 20:00N 52°02' E 003°57'0 0.0
2017-Aug-20 19:30N 52°02' E 003°57'4 7.9
2017-Aug-20 19:00N 51°60' E 004°02'2 4.3
2017-Aug-20 18:30N 51°58' E 004°03'0 0.1
2017-Aug-20 18:00N 51°58' E 004°03'1 2.4
2017-Aug-20 17:30N 51°58' E 004°05'1 2.4
2017-Aug-20 17:00N 51°59' E 004°05'3 6.1
2017-Aug-20 16:30N 51°58' E 004°09'3 5.8
2017-Aug-20 16:00N 51°56' E 004°13'3 5.3
2017-Aug-20 15:30N 51°54' E 004°17'3 5.1
2017-Aug-20 15:00N 51°54' E 004°21'1 2.9
2017-Aug-20 14:31N 51°54' E 004°23'0 0.9
2017-Aug-20 14:01N 51°54' E 004°23'0 0.1
2017-Aug-20 13:30N 51°54' E 004°23'0 0.1
2017-Aug-20 13:00N 51°54' E 004°23'0 0.0
2017-Aug-20 12:30N 51°54' E 004°23'0 0.0
2017-Aug-20 12:00N 51°54' E 004°23'0 0.0
2017-Aug-20 11:30N 51°54' E 004°23'1 3.0
2017-Aug-20 11:00N 51°55' E 004°25'0 0.4
2017-Aug-20 10:30N 51°55' E 004°25'0 0.0
2017-Aug-20 10:00N 51°55' E 004°25'0 0.0
2017-Aug-20 09:30N 51°55' E 004°25'0 0.0
2017-Aug-20 09:00N 51°55' E 004°25'0 0.0
2017-Aug-20 08:30N 51°55' E 004°25'0 0.0
2017-Aug-20 08:00N 51°55' E 004°25'0 0.0
2017-Aug-20 07:30N 51°55' E 004°25'0 0.0
2017-Aug-20 07:00N 51°55' E 004°25'0 0.0
2017-Aug-20 06:30N 51°55' E 004°25'0 0.0
2017-Aug-20 06:00N 51°55' E 004°25'0 0.0
2017-Aug-20 05:30N 51°55' E 004°25'0 0.0
2017-Aug-20 05:00N 51°55' E 004°25'0 0.0
2017-Aug-20 04:30N 51°55' E 004°25'0 0.0
2017-Aug-20 04:00N 51°55' E 004°25'0 0.0
2017-Aug-20 03:30N 51°55' E 004°25'0 0.0
2017-Aug-20 03:00N 51°55' E 004°25'0 0.0
2017-Aug-20 02:30N 51°55' E 004°25'0 0.0
2017-Aug-20 02:00N 51°55' E 004°25'0 0.0
2017-Aug-20 01:30N 51°55' E 004°25'0 0.0
2017-Aug-20 01:00N 51°55' E 004°25'2 4.4
2017-Aug-20 00:30N 51°54' E 004°22'611.8
2017-Aug-20 00:00N 51°56' E 004°13'510.4
2017-Aug-19 23:30N 51°58' E 004°05'2 3.6
2017-Aug-19 23:00N 51°58' E 004°03'1 1.8
2017-Aug-19 22:30N 51°58' E 004°04'1 2.5
2017-Aug-19 22:01N 51°59' E 004°04'2 3.1
2017-Aug-19 21:30N 51°58' E 004°06'0 0.1
2017-Aug-19 21:00N 51°58' E 004°06'0 0.9
2017-Aug-19 20:30N 51°58' E 004°05'1 2.9
2017-Aug-19 20:00N 51°56' E 004°04'2 3.9
2017-Aug-19 19:31N 51°58' E 004°05'2 4.2
2017-Aug-19 19:00N 51°57' E 004°09'0 0.5
2017-Aug-19 18:30N 51°57' E 004°08'1 2.3
2017-Aug-19 18:00N 51°58' E 004°07'1 1.4
2017-Aug-19 17:30N 51°58' E 004°06'0 0.1
2017-Aug-19 17:00N 51°58' E 004°06'0 0.0
2017-Aug-19 16:30N 51°58' E 004°06'0 0.0
2017-Aug-19 16:00N 51°58' E 004°06'0 0.0
2017-Aug-19 15:30N 51°58' E 004°06'1 1.9
2017-Aug-19 15:00N 51°58' E 004°04'1 0.6
2017-Aug-19 14:00N 51°58' E 004°05'1 2.8
2017-Aug-19 13:30N 51°59' E 004°04'2 4.4
2017-Aug-19 13:00N 51°57' E 004°04'0 0.2
2017-Aug-19 12:30N 51°57' E 004°04'2 3.6
2017-Aug-19 12:00N 51°58' E 004°05'0 1.0
2017-Aug-19 11:30N 51°59' E 004°04'1 2.4
2017-Aug-19 11:01N 51°58' E 004°06'3 6.5
2017-Aug-19 10:30N 51°57' E 004°11'5 9.7
2017-Aug-19 10:00N 51°54' E 004°17'4 8.7
2017-Aug-19 09:30N 51°54' E 004°24'1 2.0
2017-Aug-19 09:00N 51°55' E 004°25'0 0.0
2017-Aug-19 08:30N 51°55' E 004°25'0 0.0
2017-Aug-19 08:00N 51°55' E 004°25'0 0.0
2017-Aug-19 07:30N 51°55' E 004°25'0 0.0
2017-Aug-19 07:00N 51°55' E 004°25'0 0.0
2017-Aug-19 06:30N 51°55' E 004°25'0 0.0
2017-Aug-19 06:00N 51°55' E 004°25'0 0.0
2017-Aug-19 05:30N 51°55' E 004°25'0 0.0
2017-Aug-19 05:00N 51°55' E 004°25'0 0.0
2017-Aug-19 04:30N 51°55' E 004°25'0 0.0
2017-Aug-19 04:00N 51°55' E 004°25'0 0.0
2017-Aug-19 03:30N 51°55' E 004°25'0 0.0
2017-Aug-19 03:00N 51°55' E 004°25'0 0.0
2017-Aug-19 02:30N 51°55' E 004°25'0 0.0
2017-Aug-19 02:00N 51°55' E 004°25'0 0.0
2017-Aug-19 01:30N 51°55' E 004°25'0 0.0
2017-Aug-19 01:00N 51°55' E 004°25'0 0.1
2017-Aug-19 00:30N 51°55' E 004°25'3 6.5
2017-Aug-19 00:01N 51°54' E 004°20'0 0.8
2017-Aug-18 23:30N 51°53' E 004°21'3 5.3
2017-Aug-18 23:01N 51°54' E 004°25'1 1.3
2017-Aug-18 22:30N 51°55' E 004°25'0 0.0
2017-Aug-18 22:00N 51°55' E 004°25'0 0.0
2017-Aug-18 21:30N 51°55' E 004°25'0 0.0
2017-Aug-18 21:00N 51°55' E 004°25'0 0.0
2017-Aug-18 20:30N 51°55' E 004°25'0 0.0
2017-Aug-18 20:00N 51°55' E 004°25'0 0.0
2017-Aug-18 19:30N 51°55' E 004°25'0 0.0
2017-Aug-18 19:00N 51°55' E 004°25'0 0.0
2017-Aug-18 18:30N 51°55' E 004°25'0 0.0
2017-Aug-18 18:00N 51°55' E 004°25'0 0.0
2017-Aug-18 17:30N 51°55' E 004°25'0 0.0
2017-Aug-18 17:00N 51°55' E 004°25'0 0.0
2017-Aug-18 16:30N 51°55' E 004°25'0 0.0
2017-Aug-18 16:00N 51°55' E 004°25'0 0.0
2017-Aug-18 15:30N 51°55' E 004°25'0 0.0
2017-Aug-18 15:00N 51°55' E 004°25'0 0.0
2017-Aug-18 14:30N 51°55' E 004°25'0 0.0
2017-Aug-18 13:30N 51°55' E 004°25'0 0.0
2017-Aug-18 13:00N 51°55' E 004°25'0 0.0
2017-Aug-18 12:30N 51°55' E 004°25'0 0.0
2017-Aug-18 12:00N 51°55' E 004°25'0 0.0
2017-Aug-18 11:30N 51°55' E 004°25'0 0.0
2017-Aug-18 11:00N 51°55' E 004°25'0 0.0
2017-Aug-18 10:30N 51°55' E 004°25'0 0.0
2017-Aug-18 10:00N 51°55' E 004°25'0 0.0
2017-Aug-18 09:30N 51°55' E 004°25'0 0.0
2017-Aug-18 09:00N 51°55' E 004°25'0 0.0
2017-Aug-18 08:30N 51°55' E 004°25'0 0.0
2017-Aug-18 08:00N 51°55' E 004°25'0 0.0
2017-Aug-18 07:30N 51°55' E 004°25'0 0.0
2017-Aug-18 07:00N 51°55' E 004°25'0 0.0
2017-Aug-18 06:30N 51°55' E 004°25'0 0.0
2017-Aug-18 06:00N 51°55' E 004°25'0 0.0
2017-Aug-18 05:30N 51°55' E 004°25'0 0.0
2017-Aug-18 05:00N 51°55' E 004°25'0 0.0
2017-Aug-18 04:30N 51°55' E 004°25'0 0.0
2017-Aug-18 04:00N 51°55' E 004°25'0 0.0
2017-Aug-18 03:30N 51°55' E 004°25'0 0.0
2017-Aug-18 03:00N 51°55' E 004°25'0 0.0
2017-Aug-18 02:30N 51°55' E 004°25'0 0.0
2017-Aug-18 02:00N 51°55' E 004°25'0 0.0
2017-Aug-18 01:30N 51°55' E 004°25'0 0.0
2017-Aug-18 01:00N 51°55' E 004°25'0 0.0
2017-Aug-18 00:30N 51°55' E 004°25'0 0.0
2017-Aug-18 00:00N 51°55' E 004°25'0 0.0
2017-Aug-17 23:30N 51°55' E 004°25'0 0.0
2017-Aug-17 23:00N 51°55' E 004°25'0 0.0
2017-Aug-17 22:30N 51°55' E 004°25'0 0.0
2017-Aug-17 22:00N 51°55' E 004°25'0 0.0
2017-Aug-17 21:30N 51°55' E 004°25'0 0.0
2017-Aug-17 21:00N 51°55' E 004°25'0 0.0
2017-Aug-17 20:30N 51°55' E 004°25'0 0.0
2017-Aug-17 20:00N 51°55' E 004°25'0 0.0
2017-Aug-17 19:30N 51°55' E 004°25'0 0.0
2017-Aug-17 19:00N 51°55' E 004°25'0 0.0
2017-Aug-17 18:30N 51°55' E 004°25'0 0.0
2017-Aug-17 18:00N 51°55' E 004°25'0 0.0
2017-Aug-17 17:30N 51°55' E 004°25'0 0.0
2017-Aug-17 17:00N 51°55' E 004°25'0 0.0
2017-Aug-17 16:30N 51°55' E 004°25'0 0.0
2017-Aug-17 16:00N 51°55' E 004°25'0 0.0
2017-Aug-17 15:30N 51°55' E 004°25'0 0.0
2017-Aug-17 15:00N 51°55' E 004°25'0 0.0
2017-Aug-17 14:30N 51°55' E 004°25'0 0.0
2017-Aug-17 14:00N 51°55' E 004°25'0 0.0
2017-Aug-17 13:30N 51°55' E 004°25'0 0.0
2017-Aug-17 13:00N 51°55' E 004°25'0 0.0
2017-Aug-17 12:30N 51°55' E 004°25'0 0.0
2017-Aug-17 12:00N 51°55' E 004°25'0 0.0
2017-Aug-17 11:30N 51°55' E 004°25'0 0.0
2017-Aug-17 11:00N 51°55' E 004°25'0 0.0
2017-Aug-17 10:30N 51°55' E 004°25'2 3.6
2017-Aug-17 10:00N 51°54' E 004°23'5 9.6
2017-Aug-17 09:30N 51°55' E 004°15'611.1
2017-Aug-17 09:00N 51°58' E 004°08'510.7
2017-Aug-17 08:30N 51°60' E 003°60'611.2
2017-Aug-17 08:00N 52°01' E 003°51'1018.9
2017-Aug-17 07:29N 52°11' E 003°47'0 0.1
2017-Aug-17 07:00N 52°11' E 003°47'2210.3
2017-Aug-17 04:55N 52°33' E 003°52'410.6
2017-Aug-17 04:30N 52°37' E 003°53'510.7
2017-Aug-17 04:00N 52°42' E 003°56'510.8
2017-Aug-17 03:30N 52°47' E 003°57'510.6
2017-Aug-17 03:00N 52°53' E 003°59'6 9.9
2017-Aug-17 02:21N 52°58' E 004°04'4 9.9
2017-Aug-17 01:58N 53°01' E 004°09'5 9.7
2017-Aug-17 01:30N 53°04' E 004°14'5 9.4
2017-Aug-17 01:00N 53°07' E 004°20'5 9.1
2017-Aug-17 00:28N 53°10' E 004°26'12 8.4
2017-Aug-16 23:01N 53°22' E 004°32'0 8.8
2017-Aug-16 23:00N 53°22' E 004°32'5 8.6
2017-Aug-16 22:26N 53°27' E 004°34'4 8.9
2017-Aug-16 22:00N 53°30' E 004°36'5 9.4
2017-Aug-16 21:28N 53°35' E 004°39'  

Dump ship's entire track history